sensor_id;sensor_type;location;lat;lon;timestamp;temperature;humidity
6930;DHT22;3504;52.616;13.238;2023-07-20T00:02:26;16.76;79.85
6930;DHT22;3504;52.616;13.238;2023-07-20T00:07:26;16.70;80.50
6930;DHT22;3504;52.616;13.238;2023-07-20T00:12:27;16.63;80.86
6930;DHT22;3504;52.616;13.238;2023-07-20T00:17:27;16.57;80.82
6930;DHT22;3504;52.616;13.238;2023-07-20T00:22:28;16.56;80.35
6930;DHT22;3504;52.616;13.238;2023-07-20T00:27:29;16.55;80.03
6930;DHT22;3504;52.616;13.238;2023-07-20T00:32:29;16.46;80.40
6930;DHT22;3504;52.616;13.238;2023-07-20T00:37:31;16.41;80.63
6930;DHT22;3504;52.616;13.238;2023-07-20T00:42:33;16.33;80.80
6930;DHT22;3504;52.616;13.238;2023-07-20T00:47:34;16.28;81.96
6930;DHT22;3504;52.616;13.238;2023-07-20T00:52:35;16.29;82.22
6930;DHT22;3504;52.616;13.238;2023-07-20T00:57:39;16.28;82.49
6930;DHT22;3504;52.616;13.238;2023-07-20T01:02:40;16.22;82.67
6930;DHT22;3504;52.616;13.238;2023-07-20T01:08:18;16.29;82.36
6930;DHT22;3504;52.616;13.238;2023-07-20T01:13:20;16.32;82.75
6930;DHT22;3504;52.616;13.238;2023-07-20T01:18:22;16.33;82.71
6930;DHT22;3504;52.616;13.238;2023-07-20T01:23:50;16.32;82.43
6930;DHT22;3504;52.616;13.238;2023-07-20T01:34:26;16.19;83.46
6930;DHT22;3504;52.616;13.238;2023-07-20T01:39:27;16.22;83.27
6930;DHT22;3504;52.616;13.238;2023-07-20T01:44:28;16.25;83.90
6930;DHT22;3504;52.616;13.238;2023-07-20T01:49:29;16.19;83.72
6930;DHT22;3504;52.616;13.238;2023-07-20T01:54:30;16.21;83.52
6930;DHT22;3504;52.616;13.238;2023-07-20T01:59:31;16.22;83.10
6930;DHT22;3504;52.616;13.238;2023-07-20T02:04:31;16.19;83.38
6930;DHT22;3504;52.616;13.238;2023-07-20T02:09:32;16.17;83.48
6930;DHT22;3504;52.616;13.238;2023-07-20T02:14:33;16.18;83.55
6930;DHT22;3504;52.616;13.238;2023-07-20T02:19:34;16.12;83.88
6930;DHT22;3504;52.616;13.238;2023-07-20T02:24:34;16.17;83.36
6930;DHT22;3504;52.616;13.238;2023-07-20T02:29:35;16.07;83.92
6930;DHT22;3504;52.616;13.238;2023-07-20T02:34:36;16.11;83.89
6930;DHT22;3504;52.616;13.238;2023-07-20T02:39:36;16.15;83.59
6930;DHT22;3504;52.616;13.238;2023-07-20T02:44:37;16.12;83.78
6930;DHT22;3504;52.616;13.238;2023-07-20T02:49:38;16.11;84.01
6930;DHT22;3504;52.616;13.238;2023-07-20T02:54:38;16.07;84.19
6930;DHT22;3504;52.616;13.238;2023-07-20T02:59:39;16.05;84.39
6930;DHT22;3504;52.616;13.238;2023-07-20T03:04:39;15.97;84.94
6930;DHT22;3504;52.616;13.238;2023-07-20T03:09:40;16.00;84.93
6930;DHT22;3504;52.616;13.238;2023-07-20T03:14:41;15.97;85.11
6930;DHT22;3504;52.616;13.238;2023-07-20T03:19:42;15.95;84.89
6930;DHT22;3504;52.616;13.238;2023-07-20T03:24:44;15.97;84.82
6930;DHT22;3504;52.616;13.238;2023-07-20T03:29:44;16.04;84.62
6930;DHT22;3504;52.616;13.238;2023-07-20T03:34:45;16.00;84.79
6930;DHT22;3504;52.616;13.238;2023-07-20T03:39:48;16.01;84.57
6930;DHT22;3504;52.616;13.238;2023-07-20T03:44:49;16.07;84.10
6930;DHT22;3504;52.616;13.238;2023-07-20T03:49:50;16.11;84.08
6930;DHT22;3504;52.616;13.238;2023-07-20T03:54:51;16.15;84.30
6930;DHT22;3504;52.616;13.238;2023-07-20T03:59:54;16.15;84.07
6930;DHT22;3504;52.616;13.238;2023-07-20T04:04:56;16.15;84.26
6930;DHT22;3504;52.616;13.238;2023-07-20T04:09:57;16.14;84.54
6930;DHT22;3504;52.616;13.238;2023-07-20T04:14:57;16.12;84.32
6930;DHT22;3504;52.616;13.238;2023-07-20T04:19:58;16.19;84.16
6930;DHT22;3504;52.616;13.238;2023-07-20T04:24:59;16.21;84.15
6930;DHT22;3504;52.616;13.238;2023-07-20T04:30:00;16.18;84.04
6930;DHT22;3504;52.616;13.238;2023-07-20T04:35:00;16.21;84.04
6930;DHT22;3504;52.616;13.238;2023-07-20T04:40:02;16.24;84.29
6930;DHT22;3504;52.616;13.238;2023-07-20T04:45:04;16.26;84.46
6930;DHT22;3504;52.616;13.238;2023-07-20T04:50:05;16.35;83.99
6930;DHT22;3504;52.616;13.238;2023-07-20T04:55:06;16.35;83.69
6930;DHT22;3504;52.616;13.238;2023-07-20T05:00:07;16.32;83.76
6930;DHT22;3504;52.616;13.238;2023-07-20T05:05:11;16.39;83.74
6930;DHT22;3504;52.616;13.238;2023-07-20T05:10:12;16.46;83.60
6930;DHT22;3504;52.616;13.238;2023-07-20T05:15:12;16.55;83.44
6930;DHT22;3504;52.616;13.238;2023-07-20T05:20:14;16.51;83.29
6930;DHT22;3504;52.616;13.238;2023-07-20T05:25:18;16.66;83.02
6930;DHT22;3504;52.616;13.238;2023-07-20T05:30:19;16.62;81.49
6930;DHT22;3504;52.616;13.238;2023-07-20T05:35:20;16.62;82.04
6930;DHT22;3504;52.616;13.238;2023-07-20T05:40:20;16.73;82.16
6930;DHT22;3504;52.616;13.238;2023-07-20T05:45:21;16.99;81.60
6930;DHT22;3504;52.616;13.238;2023-07-20T05:50:21;17.21;80.61
6930;DHT22;3504;52.616;13.238;2023-07-20T05:55:22;17.48;80.07
6930;DHT22;3504;52.616;13.238;2023-07-20T06:00:23;17.64;79.67
6930;DHT22;3504;52.616;13.238;2023-07-20T06:05:26;17.78;78.70
6930;DHT22;3504;52.616;13.238;2023-07-20T06:10:27;17.72;77.08
6930;DHT22;3504;52.616;13.238;2023-07-20T06:15:36;17.75;77.40
6930;DHT22;3504;52.616;13.238;2023-07-20T06:20:39;17.68;77.18
6930;DHT22;3504;52.616;13.238;2023-07-20T06:25:40;17.74;77.08
6930;DHT22;3504;52.616;13.238;2023-07-20T06:30:40;18.00;76.52
6930;DHT22;3504;52.616;13.238;2023-07-20T06:35:42;18.63;73.94
6930;DHT22;3504;52.616;13.238;2023-07-20T06:40:43;18.79;71.87
6930;DHT22;3504;52.616;13.238;2023-07-20T06:45:43;18.78;71.25
6930;DHT22;3504;52.616;13.238;2023-07-20T06:50:44;18.61;71.90
6930;DHT22;3504;52.616;13.238;2023-07-20T06:55:45;18.37;71.93
6930;DHT22;3504;52.616;13.238;2023-07-20T07:00:45;18.82;70.65
6930;DHT22;3504;52.616;13.238;2023-07-20T07:05:46;19.47;67.69
6930;DHT22;3504;52.616;13.238;2023-07-20T07:10:46;19.87;66.19
6930;DHT22;3504;52.616;13.238;2023-07-20T07:15:47;19.73;64.74
6930;DHT22;3504;52.616;13.238;2023-07-20T07:20:52;19.64;65.75
6930;DHT22;3504;52.616;13.238;2023-07-20T07:25:52;19.57;66.56
6930;DHT22;3504;52.616;13.238;2023-07-20T07:30:55;20.01;65.26
6930;DHT22;3504;52.616;13.238;2023-07-20T07:35:55;20.31;63.04
6930;DHT22;3504;52.616;13.238;2023-07-20T07:40:56;20.04;62.31
6930;DHT22;3504;52.616;13.238;2023-07-20T07:45:56;20.25;62.76
6930;DHT22;3504;52.616;13.238;2023-07-20T07:50:57;20.26;61.51
6930;DHT22;3504;52.616;13.238;2023-07-20T07:55:58;20.08;60.75
6930;DHT22;3504;52.616;13.238;2023-07-20T08:00:58;19.88;61.89
6930;DHT22;3504;52.616;13.238;2023-07-20T08:05:59;19.94;61.84
6930;DHT22;3504;52.616;13.238;2023-07-20T08:11:00;20.38;60.52
6930;DHT22;3504;52.616;13.238;2023-07-20T08:16:01;20.45;59.52
6930;DHT22;3504;52.616;13.238;2023-07-20T08:21:04;20.43;59.76
6930;DHT22;3504;52.616;13.238;2023-07-20T08:26:05;20.28;59.98
6930;DHT22;3504;52.616;13.238;2023-07-20T08:31:06;20.46;60.48
6930;DHT22;3504;52.616;13.238;2023-07-20T08:36:07;21.15;59.72
6930;DHT22;3504;52.616;13.238;2023-07-20T08:41:09;21.43;56.39
6930;DHT22;3504;52.616;13.238;2023-07-20T08:46:11;21.78;57.78
6930;DHT22;3504;52.616;13.238;2023-07-20T08:51:13;22.04;56.52
6930;DHT22;3504;52.616;13.238;2023-07-20T08:56:14;22.53;53.14
6930;DHT22;3504;52.616;13.238;2023-07-20T09:01:17;22.63;53.10
6930;DHT22;3504;52.616;13.238;2023-07-20T09:06:18;22.32;54.87
6930;DHT22;3504;52.616;13.238;2023-07-20T09:11:19;21.69;54.34
6930;DHT22;3504;52.616;13.238;2023-07-20T09:16:20;21.11;55.53
6930;DHT22;3504;52.616;13.238;2023-07-20T09:21:20;20.55;58.79
6930;DHT22;3504;52.616;13.238;2023-07-20T09:26:21;20.43;58.99
6930;DHT22;3504;52.616;13.238;2023-07-20T09:31:22;20.56;59.34
6930;DHT22;3504;52.616;13.238;2023-07-20T09:36:23;20.63;59.34
6930;DHT22;3504;52.616;13.238;2023-07-20T09:41:23;20.57;58.34
6930;DHT22;3504;52.616;13.238;2023-07-20T09:46:41;20.56;59.32
6930;DHT22;3504;52.616;13.238;2023-07-20T09:51:44;20.69;60.02
6930;DHT22;3504;52.616;13.238;2023-07-20T09:56:45;20.79;58.14
6930;DHT22;3504;52.616;13.238;2023-07-20T10:01:47;20.69;60.04
6930;DHT22;3504;52.616;13.238;2023-07-20T10:06:49;20.71;58.83
6930;DHT22;3504;52.616;13.238;2023-07-20T10:11:53;20.89;58.45
6930;DHT22;3504;52.616;13.238;2023-07-20T10:16:58;21.07;56.91
6930;DHT22;3504;52.616;13.238;2023-07-20T10:22:12;21.14;56.42
6930;DHT22;3504;52.616;13.238;2023-07-20T10:27:14;21.28;56.86
6930;DHT22;3504;52.616;13.238;2023-07-20T10:32:19;21.30;55.93
6930;DHT22;3504;52.616;13.238;2023-07-20T10:37:52;21.20;55.53
6930;DHT22;3504;52.616;13.238;2023-07-20T10:43:01;21.17;56.59
6930;DHT22;3504;52.616;13.238;2023-07-20T10:48:20;21.53;55.63
6930;DHT22;3504;52.616;13.238;2023-07-20T10:53:21;21.89;54.50
6930;DHT22;3504;52.616;13.238;2023-07-20T10:58:21;22.39;53.24
6930;DHT22;3504;52.616;13.238;2023-07-20T11:03:32;22.09;54.68
6930;DHT22;3504;52.616;13.238;2023-07-20T11:08:42;21.86;54.92
6930;DHT22;3504;52.616;13.238;2023-07-20T11:14:01;22.64;53.95
6930;DHT22;3504;52.616;13.238;2023-07-20T11:19:04;22.92;51.88
6930;DHT22;3504;52.616;13.238;2023-07-20T11:24:06;22.27;52.74
6930;DHT22;3504;52.616;13.238;2023-07-20T11:29:07;21.57;60.07
6930;DHT22;3504;52.616;13.238;2023-07-20T11:34:21;20.90;62.19
6930;DHT22;3504;52.616;13.238;2023-07-20T11:39:22;20.53;64.98
6930;DHT22;3504;52.616;13.238;2023-07-20T11:44:26;20.45;64.85
6930;DHT22;3504;52.616;13.238;2023-07-20T11:49:27;20.31;64.61
6930;DHT22;3504;52.616;13.238;2023-07-20T11:54:28;20.33;64.25
6930;DHT22;3504;52.616;13.238;2023-07-20T11:59:29;20.33;64.72
6930;DHT22;3504;52.616;13.238;2023-07-20T12:04:31;20.43;64.76
6930;DHT22;3504;52.616;13.238;2023-07-20T12:09:33;20.73;65.04
6930;DHT22;3504;52.616;13.238;2023-07-20T12:14:33;20.83;64.37
6930;DHT22;3504;52.616;13.238;2023-07-20T12:19:38;20.77;63.40
6930;DHT22;3504;52.616;13.238;2023-07-20T12:24:39;21.10;62.73
6930;DHT22;3504;52.616;13.238;2023-07-20T12:29:40;21.65;57.15
6930;DHT22;3504;52.616;13.238;2023-07-20T12:34:40;21.98;52.47
6930;DHT22;3504;52.616;13.238;2023-07-20T12:39:41;22.37;48.52
6930;DHT22;3504;52.616;13.238;2023-07-20T12:44:44;22.53;48.16
6930;DHT22;3504;52.616;13.238;2023-07-20T12:49:45;22.91;46.91
6930;DHT22;3504;52.616;13.238;2023-07-20T12:54:46;23.08;46.06
6930;DHT22;3504;52.616;13.238;2023-07-20T12:59:47;23.34;46.93
6930;DHT22;3504;52.616;13.238;2023-07-20T13:04:47;23.55;45.75
6930;DHT22;3504;52.616;13.238;2023-07-20T13:09:48;23.72;44.97
6930;DHT22;3504;52.616;13.238;2023-07-20T13:14:48;23.99;43.20
6930;DHT22;3504;52.616;13.238;2023-07-20T13:19:49;24.04;40.59
6930;DHT22;3504;52.616;13.238;2023-07-20T13:24:50;24.06;40.59
6930;DHT22;3504;52.616;13.238;2023-07-20T13:29:51;24.14;39.94
6930;DHT22;3504;52.616;13.238;2023-07-20T13:34:51;24.62;41.73
6930;DHT22;3504;52.616;13.238;2023-07-20T13:39:52;24.91;38.71
6930;DHT22;3504;52.616;13.238;2023-07-20T13:44:52;24.58;38.80
6930;DHT22;3504;52.616;13.238;2023-07-20T13:49:53;24.62;37.92
6930;DHT22;3504;52.616;13.238;2023-07-20T13:54:53;24.14;38.77
6930;DHT22;3504;52.616;13.238;2023-07-20T13:59:54;23.80;39.35
6930;DHT22;3504;52.616;13.238;2023-07-20T14:04:54;23.35;41.22
6930;DHT22;3504;52.616;13.238;2023-07-20T14:09:56;23.11;41.64
6930;DHT22;3504;52.616;13.238;2023-07-20T14:14:56;23.10;41.68
6930;DHT22;3504;52.616;13.238;2023-07-20T14:19:57;23.21;42.50
6930;DHT22;3504;52.616;13.238;2023-07-20T14:24:58;23.49;41.56
6930;DHT22;3504;52.616;13.238;2023-07-20T14:29:59;23.69;41.54
6930;DHT22;3504;52.616;13.238;2023-07-20T14:34:59;23.73;41.14
6930;DHT22;3504;52.616;13.238;2023-07-20T14:40:00;23.83;39.64
6930;DHT22;3504;52.616;13.238;2023-07-20T14:45:01;23.78;39.54
6930;DHT22;3504;52.616;13.238;2023-07-20T14:50:03;23.89;41.98
6930;DHT22;3504;52.616;13.238;2023-07-20T14:55:04;24.03;40.24
6930;DHT22;3504;52.616;13.238;2023-07-20T15:00:05;24.06;39.13
6930;DHT22;3504;52.616;13.238;2023-07-20T15:05:10;24.11;38.76
6930;DHT22;3504;52.616;13.238;2023-07-20T15:10:11;24.09;39.35
6930;DHT22;3504;52.616;13.238;2023-07-20T15:15:13;23.70;39.08
6930;DHT22;3504;52.616;13.238;2023-07-20T15:20:14;23.63;40.14
6930;DHT22;3504;52.616;13.238;2023-07-20T15:25:15;23.63;39.05
6930;DHT22;3504;52.616;13.238;2023-07-20T15:30:16;23.43;39.02
6930;DHT22;3504;52.616;13.238;2023-07-20T15:35:16;22.91;41.43
6930;DHT22;3504;52.616;13.238;2023-07-20T15:40:18;22.90;41.49
6930;DHT22;3504;52.616;13.238;2023-07-20T15:45:18;23.12;42.63
6930;DHT22;3504;52.616;13.238;2023-07-20T15:50:19;23.05;42.75
6930;DHT22;3504;52.616;13.238;2023-07-20T15:55:19;23.10;42.63
6930;DHT22;3504;52.616;13.238;2023-07-20T16:00:20;22.90;43.46
6930;DHT22;3504;52.616;13.238;2023-07-20T16:05:20;22.78;41.85
6930;DHT22;3504;52.616;13.238;2023-07-20T16:10:21;22.78;43.70
6930;DHT22;3504;52.616;13.238;2023-07-20T16:15:21;22.68;43.38
6930;DHT22;3504;52.616;13.238;2023-07-20T16:20:23;22.60;42.94
6930;DHT22;3504;52.616;13.238;2023-07-20T16:25:23;22.66;44.06
6930;DHT22;3504;52.616;13.238;2023-07-20T16:30:24;22.92;44.68
6930;DHT22;3504;52.616;13.238;2023-07-20T16:35:24;23.05;44.30
6930;DHT22;3504;52.616;13.238;2023-07-20T16:40:25;22.78;43.88
6930;DHT22;3504;52.616;13.238;2023-07-20T16:45:25;22.52;44.57
6930;DHT22;3504;52.616;13.238;2023-07-20T16:50:26;22.43;44.94
6930;DHT22;3504;52.616;13.238;2023-07-20T16:55:29;22.32;44.60
6930;DHT22;3504;52.616;13.238;2023-07-20T17:00:30;22.26;45.46
6930;DHT22;3504;52.616;13.238;2023-07-20T17:05:30;21.96;44.60
6930;DHT22;3504;52.616;13.238;2023-07-20T17:10:31;21.72;45.47
6930;DHT22;3504;52.616;13.238;2023-07-20T17:15:32;21.69;46.43
6930;DHT22;3504;52.616;13.238;2023-07-20T17:20:32;21.61;46.26
6930;DHT22;3504;52.616;13.238;2023-07-20T17:25:36;21.47;43.53
6930;DHT22;3504;52.616;13.238;2023-07-20T17:30:36;21.28;45.23
6930;DHT22;3504;52.616;13.238;2023-07-20T17:35:37;21.15;45.62
6930;DHT22;3504;52.616;13.238;2023-07-20T17:40:38;21.00;45.31
6930;DHT22;3504;52.616;13.238;2023-07-20T17:45:41;20.83;47.38
6930;DHT22;3504;52.616;13.238;2023-07-20T17:50:41;20.71;47.21
6930;DHT22;3504;52.616;13.238;2023-07-20T17:55:43;20.55;48.27
6930;DHT22;3504;52.616;13.238;2023-07-20T18:00:44;20.42;48.36
6930;DHT22;3504;52.616;13.238;2023-07-20T18:05:45;20.35;49.84
6930;DHT22;3504;52.616;13.238;2023-07-20T18:10:46;20.22;49.88
6930;DHT22;3504;52.616;13.238;2023-07-20T18:15:55;20.10;49.51
6930;DHT22;3504;52.616;13.238;2023-07-20T18:20:56;19.97;50.16
6930;DHT22;3504;52.616;13.238;2023-07-20T18:25:56;19.90;50.68
6930;DHT22;3504;52.616;13.238;2023-07-20T18:30:57;19.78;51.55
6930;DHT22;3504;52.616;13.238;2023-07-20T18:35:57;19.73;52.18
6930;DHT22;3504;52.616;13.238;2023-07-20T18:40:58;19.54;52.02
6930;DHT22;3504;52.616;13.238;2023-07-20T18:45:58;19.47;52.17
6930;DHT22;3504;52.616;13.238;2023-07-20T18:50:59;19.45;52.32
6930;DHT22;3504;52.616;13.238;2023-07-20T18:55:59;19.43;53.30
6930;DHT22;3504;52.616;13.238;2023-07-20T19:01:00;19.40;52.81
6930;DHT22;3504;52.616;13.238;2023-07-20T19:06:00;19.33;54.21
6930;DHT22;3504;52.616;13.238;2023-07-20T19:11:02;19.22;54.45
6930;DHT22;3504;52.616;13.238;2023-07-20T19:16:04;19.15;53.98
6930;DHT22;3504;52.616;13.238;2023-07-20T19:21:05;19.03;54.62
6930;DHT22;3504;52.616;13.238;2023-07-20T19:26:07;18.88;55.76
6930;DHT22;3504;52.616;13.238;2023-07-20T19:31:08;18.75;55.60
6930;DHT22;3504;52.616;13.238;2023-07-20T19:36:09;18.60;56.81
6930;DHT22;3504;52.616;13.238;2023-07-20T19:41:10;18.44;57.68
6930;DHT22;3504;52.616;13.238;2023-07-20T19:46:10;18.28;57.52
6930;DHT22;3504;52.616;13.238;2023-07-20T19:51:11;18.12;58.43
6930;DHT22;3504;52.616;13.238;2023-07-20T19:56:11;18.00;59.58
6930;DHT22;3504;52.616;13.238;2023-07-20T20:01:12;17.81;60.19
6930;DHT22;3504;52.616;13.238;2023-07-20T20:06:12;17.65;61.09
6930;DHT22;3504;52.616;13.238;2023-07-20T20:11:13;17.49;61.84
6930;DHT22;3504;52.616;13.238;2023-07-20T20:16:14;17.31;62.11
6930;DHT22;3504;52.616;13.238;2023-07-20T20:21:15;17.20;62.44
6930;DHT22;3504;52.616;13.238;2023-07-20T20:26:15;17.04;62.11
6930;DHT22;3504;52.616;13.238;2023-07-20T20:31:16;16.90;63.32
6930;DHT22;3504;52.616;13.238;2023-07-20T20:36:16;16.74;64.29
6930;DHT22;3504;52.616;13.238;2023-07-20T20:41:17;16.62;65.15
6930;DHT22;3504;52.616;13.238;2023-07-20T20:46:18;16.53;64.56
6930;DHT22;3504;52.616;13.238;2023-07-20T20:51:20;16.49;65.52
6930;DHT22;3504;52.616;13.238;2023-07-20T20:56:20;16.43;66.18
6930;DHT22;3504;52.616;13.238;2023-07-20T21:01:21;16.41;65.18
6930;DHT22;3504;52.616;13.238;2023-07-20T21:06:22;16.39;66.18
6930;DHT22;3504;52.616;13.238;2023-07-20T21:11:25;16.36;66.07
6930;DHT22;3504;52.616;13.238;2023-07-20T21:16:26;16.33;66.76
6930;DHT22;3504;52.616;13.238;2023-07-20T21:21:26;16.28;66.52
6930;DHT22;3504;52.616;13.238;2023-07-20T21:26:27;16.19;67.33
6930;DHT22;3504;52.616;13.238;2023-07-20T21:31:27;16.10;67.74
6930;DHT22;3504;52.616;13.238;2023-07-20T21:36:28;15.92;68.51
6930;DHT22;3504;52.616;13.238;2023-07-20T21:41:28;15.91;67.85
6930;DHT22;3504;52.616;13.238;2023-07-20T21:46:30;15.78;68.74
6930;DHT22;3504;52.616;13.238;2023-07-20T21:51:30;15.71;69.04
6930;DHT22;3504;52.616;13.238;2023-07-20T21:56:31;15.57;69.30
6930;DHT22;3504;52.616;13.238;2023-07-20T22:01:34;15.49;69.52
6930;DHT22;3504;52.616;13.238;2023-07-20T22:06:35;15.39;70.13
6930;DHT22;3504;52.616;13.238;2023-07-20T22:11:35;15.32;70.60
6930;DHT22;3504;52.616;13.238;2023-07-20T22:16:38;15.20;70.31
6930;DHT22;3504;52.616;13.238;2023-07-20T22:21:38;15.08;70.86
6930;DHT22;3504;52.616;13.238;2023-07-20T22:26:39;15.00;70.92
6930;DHT22;3504;52.616;13.238;2023-07-20T22:31:39;14.95;70.82
6930;DHT22;3504;52.616;13.238;2023-07-20T22:36:40;14.86;71.34
6930;DHT22;3504;52.616;13.238;2023-07-20T22:41:41;14.79;70.86
6930;DHT22;3504;52.616;13.238;2023-07-20T22:46:42;14.71;71.60
6930;DHT22;3504;52.616;13.238;2023-07-20T22:51:42;14.58;71.58
6930;DHT22;3504;52.616;13.238;2023-07-20T22:56:43;14.57;71.41
6930;DHT22;3504;52.616;13.238;2023-07-20T23:01:43;14.50;72.21
6930;DHT22;3504;52.616;13.238;2023-07-20T23:06:44;14.37;72.33
6930;DHT22;3504;52.616;13.238;2023-07-20T23:11:44;14.28;72.87
6930;DHT22;3504;52.616;13.238;2023-07-20T23:16:45;14.18;73.13
6930;DHT22;3504;52.616;13.238;2023-07-20T23:21:46;14.14;72.99
6930;DHT22;3504;52.616;13.238;2023-07-20T23:26:47;14.02;73.21
6930;DHT22;3504;52.616;13.238;2023-07-20T23:31:47;13.96;73.43
6930;DHT22;3504;52.616;13.238;2023-07-20T23:36:48;13.90;73.56
6930;DHT22;3504;52.616;13.238;2023-07-20T23:41:48;13.82;73.26
6930;DHT22;3504;52.616;13.238;2023-07-20T23:46:49;13.82;73.75
6930;DHT22;3504;52.616;13.238;2023-07-20T23:51:49;13.71;74.21
6930;DHT22;3504;52.616;13.238;2023-07-20T23:56:50;13.63;74.29
